createdAt,value
2022-10-29T00:01:41.395Z,18.10
2022-10-29T00:04:28.321Z,18.10
2022-10-29T00:07:14.705Z,18.00
2022-10-29T00:10:01.196Z,18.00
2022-10-29T00:12:49.047Z,18.00
2022-10-29T00:15:35.825Z,17.80
2022-10-29T00:18:22.299Z,17.90
2022-10-29T00:21:12.046Z,17.90
2022-10-29T00:23:59.733Z,18.00
2022-10-29T00:26:46.614Z,17.90
2022-10-29T00:29:34.842Z,17.80
2022-10-29T00:32:21.708Z,17.80
2022-10-29T00:35:08.508Z,17.70
2022-10-29T00:37:55.293Z,17.80
2022-10-29T00:40:42.153Z,17.90
2022-10-29T00:43:29.039Z,17.80
2022-10-29T00:46:22.282Z,17.80
2022-10-29T00:49:09.443Z,17.90
2022-10-29T00:51:57.316Z,17.90
2022-10-29T00:54:47.275Z,17.90
2022-10-29T00:57:37.106Z,17.80
2022-10-29T01:00:24.937Z,17.70
2022-10-29T01:03:13.299Z,17.70
2022-10-29T01:06:01.122Z,17.60
2022-10-29T01:08:47.815Z,17.50
2022-10-29T01:11:47.262Z,17.50
2022-10-29T01:14:42.804Z,17.40
2022-10-29T01:17:37.163Z,17.30
2022-10-29T01:20:53.670Z,17.30
2022-10-29T01:24:16.199Z,17.30
2022-10-29T01:27:30.030Z,17.20
2022-10-29T01:30:22.844Z,17.20
2022-10-29T01:33:17.886Z,17.20
2022-10-29T01:36:14.125Z,17.30
2022-10-29T01:39:06.441Z,17.30
2022-10-29T01:41:58.331Z,17.20
2022-10-29T01:44:52.258Z,17.30
2022-10-29T01:47:43.035Z,17.30
2022-10-29T01:50:31.132Z,17.30
2022-10-29T01:53:18.453Z,17.20
2022-10-29T01:56:05.206Z,17.10
2022-10-29T01:58:54.290Z,17.10
2022-10-29T02:01:52.302Z,17.20
2022-10-29T02:04:56.341Z,17.10
2022-10-29T02:07:51.854Z,17.10
2022-10-29T02:10:47.643Z,17.00
2022-10-29T02:13:39.014Z,17.00
2022-10-29T02:16:27.570Z,16.90
2022-10-29T02:19:14.424Z,16.90
2022-10-29T02:22:01.045Z,16.80
2022-10-29T02:24:49.167Z,16.80
2022-10-29T02:27:35.977Z,16.80
2022-10-29T02:30:22.597Z,16.70
2022-10-29T02:33:09.135Z,16.70
2022-10-29T02:35:55.685Z,16.60
2022-10-29T02:38:42.424Z,16.60
2022-10-29T02:41:30.322Z,16.50
2022-10-29T02:44:16.928Z,16.50
2022-10-29T02:47:03.668Z,16.40
2022-10-29T02:49:50.243Z,16.40
2022-10-29T02:52:36.782Z,16.40
2022-10-29T02:55:23.226Z,16.30
2022-10-29T02:58:11.157Z,16.30
2022-10-29T03:00:58.062Z,16.30
2022-10-29T03:03:44.634Z,16.20
2022-10-29T03:06:31.054Z,16.20
2022-10-29T03:09:17.525Z,16.20
2022-10-29T03:12:04.295Z,16.10
2022-10-29T03:14:52.409Z,16.10
2022-10-29T03:17:39.041Z,16.00
2022-10-29T03:20:25.537Z,16.00
2022-10-29T03:23:12.009Z,16.00
2022-10-29T03:25:58.517Z,15.90
2022-10-29T03:31:37.967Z,15.80
2022-10-29T03:34:24.839Z,15.80
2022-10-29T03:37:11.279Z,15.80
2022-10-29T03:39:57.670Z,15.80
2022-10-29T03:42:44.323Z,15.80
2022-10-29T03:45:30.984Z,15.70
2022-10-29T03:48:18.770Z,15.70
2022-10-29T03:51:07.767Z,15.70
2022-10-29T03:53:54.447Z,15.70
2022-10-29T03:56:40.820Z,15.70
2022-10-29T03:59:27.207Z,15.60
2022-10-29T04:02:13.921Z,15.60
2022-10-29T04:05:02.023Z,15.60
2022-10-29T04:07:48.842Z,15.60
2022-10-29T04:10:35.300Z,15.50
2022-10-29T04:13:21.766Z,15.50
2022-10-29T04:16:08.703Z,14.20
2022-10-29T04:18:55.157Z,15.40
2022-10-29T04:27:01.703Z,15.40
2022-10-29T04:31:05.902Z,15.30
2022-10-29T04:33:54.419Z,15.30
2022-10-29T04:36:42.628Z,15.30
2022-10-29T04:39:29.407Z,15.30
2022-10-29T04:42:15.911Z,15.30
2022-10-29T04:45:02.318Z,15.30
2022-10-29T04:47:48.863Z,15.30
2022-10-29T04:50:38.153Z,15.30
2022-10-29T04:53:25.902Z,15.30
2022-10-29T04:56:12.614Z,15.30
2022-10-29T04:58:59.129Z,15.20
2022-10-29T05:01:45.589Z,15.20
2022-10-29T05:04:32.119Z,15.20
2022-10-29T05:07:18.745Z,15.20
2022-10-29T05:10:07.425Z,15.20
2022-10-29T05:12:59.345Z,15.10
2022-10-29T05:15:53.286Z,15.10
2022-10-29T05:18:39.968Z,15.00
2022-10-29T05:21:26.456Z,15.00
2022-10-29T05:24:12.974Z,15.00
2022-10-29T05:27:00.709Z,15.00
2022-10-29T05:29:47.361Z,14.90
2022-10-29T05:35:25.535Z,14.90
2022-10-29T05:38:12.882Z,14.90
2022-10-29T05:40:59.847Z,14.90
2022-10-29T05:43:51.234Z,14.90
2022-10-29T05:46:38.172Z,14.90
2022-10-29T05:49:24.697Z,14.90
2022-10-29T05:52:11.316Z,15.00
2022-10-29T05:54:57.767Z,15.00
2022-10-29T05:57:44.130Z,15.10
2022-10-29T06:00:34.300Z,15.10
2022-10-29T06:03:22.667Z,15.00
2022-10-29T06:06:09.797Z,15.10
2022-10-29T06:08:56.465Z,15.20
2022-10-29T06:11:42.920Z,15.20
2022-10-29T06:14:29.371Z,15.30
2022-10-29T06:17:17.043Z,15.30
2022-10-29T06:20:03.889Z,15.30
2022-10-29T06:22:58.391Z,15.40
2022-10-29T06:25:45.508Z,15.20
2022-10-29T06:28:34.825Z,15.30
2022-10-29T06:31:21.719Z,15.40
2022-10-29T06:34:09.644Z,15.40
2022-10-29T06:36:57.187Z,15.40
2022-10-29T06:39:43.609Z,15.40
2022-10-29T06:42:30.123Z,15.40
2022-10-29T06:45:16.902Z,15.40
2022-10-29T06:48:05.116Z,15.40
2022-10-29T06:50:52.963Z,15.40
2022-10-29T06:53:40.009Z,15.40
2022-10-29T06:56:26.575Z,15.40
2022-10-29T06:59:12.995Z,15.40
2022-10-29T07:01:59.660Z,15.40
2022-10-29T07:04:46.434Z,15.40
2022-10-29T07:07:34.230Z,15.50
2022-10-29T07:10:20.932Z,15.50
2022-10-29T07:13:07.653Z,15.60
2022-10-29T07:15:54.017Z,15.50
2022-10-29T07:18:40.517Z,15.60
2022-10-29T07:21:26.986Z,15.60
2022-10-29T07:24:14.734Z,15.70
2022-10-29T07:27:02.904Z,15.60
2022-10-29T07:29:49.446Z,15.70
2022-10-29T07:32:36.289Z,15.70
2022-10-29T07:35:22.850Z,15.70
2022-10-29T07:38:11.605Z,15.80
2022-10-29T07:41:00.189Z,15.80
2022-10-29T07:43:47.087Z,15.80
2022-10-29T07:46:33.476Z,15.90
2022-10-29T07:49:20.045Z,16.00
2022-10-29T07:52:06.720Z,16.00
2022-10-29T07:54:53.461Z,16.00
2022-10-29T07:57:41.452Z,16.10
2022-10-29T08:00:28.916Z,16.10
2022-10-29T08:03:15.643Z,16.30
2022-10-29T08:06:02.212Z,16.40
2022-10-29T08:08:48.718Z,16.50
2022-10-29T08:11:35.628Z,16.50
2022-10-29T08:14:23.474Z,16.60
2022-10-29T08:17:10.424Z,16.80
2022-10-29T08:19:56.793Z,16.80
2022-10-29T08:22:43.712Z,17.00
2022-10-29T08:25:30.525Z,17.10
2022-10-29T08:28:17.602Z,17.20
2022-10-29T08:31:05.867Z,17.40
2022-10-29T08:33:52.351Z,17.50
2022-10-29T08:36:38.717Z,17.50
2022-10-29T08:39:25.308Z,17.50
2022-10-29T08:42:26.105Z,17.60
2022-10-29T08:45:21.019Z,17.70
2022-10-29T08:48:27.852Z,17.80
2022-10-29T08:51:18.265Z,17.80
2022-10-29T08:54:29.849Z,17.90
2022-10-29T08:57:16.265Z,17.90
2022-10-29T09:02:56.748Z,18.00
2022-10-29T09:05:56.434Z,18.00
2022-10-29T09:09:01.823Z,18.00
2022-10-29T09:12:08.572Z,18.00
2022-10-29T09:15:15.502Z,18.10
2022-10-29T09:18:16.865Z,18.10
2022-10-29T09:21:15.461Z,18.20
2022-10-29T09:24:14.478Z,18.20
2022-10-29T09:27:08.122Z,18.20
2022-10-29T09:30:09.917Z,18.30
2022-10-29T09:33:00.913Z,18.30
2022-10-29T09:35:50.361Z,18.40
2022-10-29T09:38:47.564Z,18.40
2022-10-29T09:41:35.642Z,18.50
2022-10-29T09:44:25.872Z,18.50
2022-10-29T09:47:25.326Z,18.50
2022-10-29T09:50:20.753Z,18.50
2022-10-29T09:53:08.064Z,18.50
2022-10-29T09:55:56.176Z,18.50
2022-10-29T09:58:45.760Z,18.60
2022-10-29T10:01:32.500Z,18.70
2022-10-29T10:04:27.647Z,18.80
2022-10-29T10:07:19.568Z,19.00
2022-10-29T10:10:08.225Z,19.10
2022-10-29T10:13:03.726Z,19.20
2022-10-29T10:15:54.064Z,19.30
2022-10-29T10:21:35.151Z,19.40
2022-10-29T10:24:31.581Z,19.40
2022-10-29T10:27:31.507Z,19.60
2022-10-29T10:30:23.551Z,19.70
2022-10-29T10:33:29.002Z,19.80
2022-10-29T10:36:16.395Z,19.90
2022-10-29T10:39:03.367Z,20.00
2022-10-29T10:41:51.702Z,20.10
2022-10-29T10:44:43.321Z,20.10
2022-10-29T10:47:36.703Z,20.10
2022-10-29T10:50:26.452Z,20.20
2022-10-29T10:53:19.901Z,20.20
2022-10-29T10:56:07.566Z,20.20
2022-10-29T10:59:05.079Z,20.20
2022-10-29T11:01:53.256Z,20.20
2022-10-29T11:04:42.521Z,20.20
2022-10-29T11:07:35.288Z,20.20
2022-10-29T11:10:28.673Z,20.30
2022-10-29T11:13:19.470Z,20.40
2022-10-29T11:16:13.331Z,20.40
2022-10-29T11:19:05.431Z,20.40
2022-10-29T11:22:05.312Z,20.50
2022-10-29T11:24:58.384Z,20.60
2022-10-29T11:27:56.685Z,20.60
2022-10-29T11:30:50.677Z,20.60
2022-10-29T11:33:46.479Z,20.70
2022-10-29T11:36:38.714Z,20.80
2022-10-29T11:39:32.021Z,20.70
2022-10-29T11:42:18.600Z,20.60
2022-10-29T11:45:05.538Z,20.40
2022-10-29T11:48:04.583Z,20.50
2022-10-29T11:50:57.897Z,20.60
2022-10-29T11:54:03.807Z,20.50
2022-10-29T11:56:59.127Z,20.60
2022-10-29T12:00:06.494Z,20.80
2022-10-29T12:03:17.194Z,20.80
2022-10-29T12:06:14.881Z,21.00
2022-10-29T12:09:28.714Z,21.00
2022-10-29T12:12:23.246Z,21.00
2022-10-29T12:15:21.103Z,21.20
2022-10-29T12:18:19.982Z,21.40
2022-10-29T12:21:14.111Z,21.40
2022-10-29T12:24:14.203Z,21.50
2022-10-29T12:27:08.993Z,21.50
2022-10-29T12:30:01.689Z,21.50
2022-10-29T12:32:58.932Z,21.50
2022-10-29T12:35:57.996Z,21.50
2022-10-29T12:38:48.431Z,21.60
2022-10-29T12:41:40.022Z,21.70
2022-10-29T12:44:31.543Z,21.70
2022-10-29T12:47:24.740Z,21.80
2022-10-29T12:50:26.517Z,21.90
2022-10-29T12:53:23.569Z,21.90
2022-10-29T12:56:15.820Z,21.80
2022-10-29T12:59:31.877Z,21.80
2022-10-29T13:02:44.680Z,21.80
2022-10-29T13:05:41.018Z,21.90
2022-10-29T13:08:35.104Z,22.20
2022-10-29T13:11:44.313Z,22.20
2022-10-29T13:14:38.524Z,22.20
2022-10-29T13:17:32.854Z,22.10
2022-10-29T13:20:25.232Z,22.00
2022-10-29T13:23:35.002Z,21.90
2022-10-29T13:26:56.395Z,21.90
2022-10-29T13:29:51.605Z,21.90
2022-10-29T13:32:40.396Z,22.00
2022-10-29T13:35:42.945Z,22.00
2022-10-29T13:38:52.046Z,21.90
2022-10-29T13:41:52.177Z,22.00
2022-10-29T13:44:39.431Z,21.90
2022-10-29T13:47:26.999Z,21.90
2022-10-29T13:50:18.100Z,21.90
2022-10-29T13:53:13.328Z,21.90
2022-10-29T13:56:01.795Z,21.90
2022-10-29T13:58:50.132Z,21.80
2022-10-29T14:01:37.686Z,21.80
2022-10-29T14:04:28.173Z,21.80
2022-10-29T14:07:22.250Z,21.80
2022-10-29T14:10:18.736Z,21.90
2022-10-29T14:13:12.354Z,21.90
2022-10-29T14:16:04.721Z,21.90
2022-10-29T14:18:54.040Z,21.90
2022-10-29T14:21:41.352Z,21.90
2022-10-29T14:24:38.845Z,21.90
2022-10-29T14:27:25.584Z,21.80
2022-10-29T14:30:20.084Z,21.80
2022-10-29T14:33:19.572Z,21.90
2022-10-29T14:36:13.408Z,21.80
2022-10-29T14:39:04.299Z,21.80
2022-10-29T14:41:52.942Z,21.80
2022-10-29T14:44:41.139Z,21.70
2022-10-29T14:47:33.513Z,21.70
2022-10-29T14:50:23.520Z,21.70
2022-10-29T14:53:28.391Z,21.60
2022-10-29T14:56:21.107Z,21.60
2022-10-29T14:59:16.683Z,21.60
2022-10-29T15:02:36.482Z,21.60
2022-10-29T15:05:26.751Z,21.40
2022-10-29T15:08:19.066Z,21.40
2022-10-29T15:11:05.826Z,21.30
2022-10-29T15:13:52.829Z,21.20
2022-10-29T15:16:42.476Z,21.20
2022-10-29T15:19:30.114Z,21.20
2022-10-29T15:22:21.176Z,21.10
2022-10-29T15:25:13.733Z,21.10
2022-10-29T15:28:01.562Z,21.00
2022-10-29T15:30:48.447Z,20.90
2022-10-29T15:33:38.157Z,20.80
2022-10-29T15:36:24.793Z,20.60
2022-10-29T15:39:22.840Z,20.60
2022-10-29T15:42:21.849Z,20.50
2022-10-29T15:45:16.691Z,20.40
2022-10-29T15:48:31.389Z,20.30
2022-10-29T15:51:22.834Z,20.20
2022-10-29T15:54:14.750Z,20.10
2022-10-29T15:57:01.178Z,20.00
2022-10-29T15:59:47.631Z,19.90
2022-10-29T16:02:34.279Z,19.90
2022-10-29T16:05:21.383Z,19.80
2022-10-29T16:08:20.073Z,19.70
2022-10-29T16:11:08.935Z,19.70
2022-10-29T16:13:55.754Z,19.60
2022-10-29T16:16:42.262Z,19.60
2022-10-29T16:19:28.922Z,19.50
2022-10-29T16:22:17.535Z,19.50
2022-10-29T16:25:06.500Z,19.50
2022-10-29T16:27:53.846Z,19.40
2022-10-29T16:33:32.193Z,19.40
2022-10-29T16:36:19.048Z,19.40
2022-10-29T16:39:05.949Z,19.40
2022-10-29T16:41:53.702Z,19.40
2022-10-29T16:44:45.888Z,19.30
2022-10-29T16:47:32.773Z,19.30
2022-10-29T16:50:21.264Z,19.30
2022-10-29T16:53:11.154Z,19.20
2022-10-29T16:55:58.007Z,19.20
2022-10-29T16:58:45.876Z,19.10
2022-10-29T17:01:32.597Z,19.00
2022-10-29T17:04:19.147Z,19.00
2022-10-29T17:07:05.981Z,18.90
2022-10-29T17:09:52.495Z,18.90
2022-10-29T17:12:38.894Z,18.80
2022-10-29T17:15:26.858Z,18.80
2022-10-29T17:18:13.797Z,18.90
2022-10-29T17:21:01.650Z,18.90
2022-10-29T17:23:48.003Z,18.80
2022-10-29T17:26:34.448Z,18.80
2022-10-29T17:29:21.238Z,18.80
2022-10-29T17:32:09.728Z,18.70
2022-10-29T17:34:56.549Z,18.60
2022-10-29T17:37:42.968Z,18.60
2022-10-29T17:40:29.469Z,18.50
2022-10-29T17:43:15.929Z,18.50
2022-10-29T17:46:02.806Z,18.40
2022-10-29T17:48:50.642Z,18.40
2022-10-29T17:51:37.948Z,18.30
2022-10-29T17:54:24.629Z,18.20
2022-10-29T17:57:11.038Z,18.20
2022-10-29T17:59:57.539Z,18.10
2022-10-29T18:02:44.004Z,18.00
2022-10-29T18:05:33.009Z,18.00
2022-10-29T18:08:19.499Z,18.00
2022-10-29T18:11:07.368Z,17.90
2022-10-29T18:13:54.225Z,17.90
2022-10-29T18:16:41.029Z,17.90
2022-10-29T18:19:27.598Z,17.80
2022-10-29T18:22:15.373Z,17.80
2022-10-29T18:25:02.230Z,17.70
2022-10-29T18:27:49.066Z,17.80
2022-10-29T18:30:35.516Z,17.70
2022-10-29T18:33:22.235Z,17.70
2022-10-29T18:36:09.379Z,17.60
2022-10-29T18:38:58.496Z,17.60
2022-10-29T18:41:45.274Z,17.50
2022-10-29T18:44:31.825Z,17.50
2022-10-29T18:47:18.377Z,17.50
2022-10-29T18:50:05.489Z,17.50
2022-10-29T18:52:52.147Z,17.40
2022-10-29T18:55:40.097Z,17.40
2022-10-29T18:58:26.914Z,17.40
2022-10-29T19:01:15.905Z,17.30
2022-10-29T19:04:04.940Z,17.30
2022-10-29T19:06:51.402Z,17.30
2022-10-29T19:09:37.775Z,17.30
2022-10-29T19:12:25.735Z,17.20
2022-10-29T19:15:12.698Z,17.20
2022-10-29T19:17:59.424Z,17.20
2022-10-29T19:20:46.137Z,17.10
2022-10-29T19:23:32.947Z,17.10
2022-10-29T19:26:20.169Z,17.20
2022-10-29T19:29:09.712Z,17.20
2022-10-29T19:31:56.436Z,17.20
2022-10-29T19:34:43.972Z,17.10
2022-10-29T19:37:30.259Z,17.10
2022-10-29T19:40:16.951Z,17.10
2022-10-29T19:43:03.757Z,17.00
2022-10-29T19:45:51.574Z,17.00
2022-10-29T19:48:38.442Z,17.00
2022-10-29T19:51:25.204Z,17.00
2022-10-29T19:54:11.639Z,17.10
2022-10-29T19:56:58.077Z,17.10
2022-10-29T19:59:44.612Z,17.10
2022-10-29T20:02:32.319Z,17.20
2022-10-29T20:05:18.943Z,17.30
2022-10-29T20:08:06.070Z,17.40
2022-10-29T20:10:57.004Z,17.40
2022-10-29T20:13:43.549Z,17.40
2022-10-29T20:16:30.072Z,17.50
2022-10-29T20:19:18.079Z,17.50
2022-10-29T20:22:04.845Z,17.50
2022-10-29T20:24:51.273Z,17.50
2022-10-29T20:27:37.783Z,17.50
2022-10-29T20:30:24.271Z,17.50
2022-10-29T20:33:10.694Z,17.50
2022-10-29T20:35:58.663Z,17.50
2022-10-29T20:38:48.798Z,17.50
2022-10-29T20:41:35.122Z,17.40
2022-10-29T20:44:21.702Z,17.40
2022-10-29T20:47:08.198Z,17.30
2022-10-29T20:49:54.611Z,17.30
2022-10-29T20:52:48.084Z,17.20
2022-10-29T20:55:35.583Z,17.20
2022-10-29T20:58:23.085Z,17.10
2022-10-29T21:01:11.437Z,17.10
2022-10-29T21:03:58.076Z,17.10
2022-10-29T21:06:44.424Z,17.10
2022-10-29T21:09:32.393Z,17.10
2022-10-29T21:12:18.828Z,17.20
2022-10-29T21:15:05.966Z,17.30
2022-10-29T21:17:52.884Z,17.40
2022-10-29T21:20:39.318Z,17.40
2022-10-29T21:23:25.806Z,17.50
2022-10-29T21:26:16.438Z,17.60
2022-10-29T21:29:03.312Z,17.60
2022-10-29T21:31:50.137Z,17.70
2022-10-29T21:34:36.597Z,17.70
2022-10-29T21:37:23.111Z,17.80
2022-10-29T21:40:12.608Z,17.70
2022-10-29T21:43:00.924Z,17.80
2022-10-29T21:45:47.553Z,17.80
2022-10-29T21:48:34.148Z,17.80
2022-10-29T21:51:20.580Z,17.90
2022-10-29T21:54:07.285Z,17.80
2022-10-29T21:56:53.993Z,17.90
2022-10-29T21:59:41.810Z,17.90
2022-10-29T22:02:28.621Z,18.00
2022-10-29T22:05:15.739Z,17.90
2022-10-29T22:08:02.433Z,17.90
2022-10-29T22:10:48.955Z,16.90
2022-10-29T22:13:36.441Z,17.90
2022-10-29T22:16:24.447Z,17.90
2022-10-29T22:19:10.955Z,17.80
2022-10-29T22:21:57.610Z,17.80
2022-10-29T22:24:44.268Z,17.80
2022-10-29T22:27:30.779Z,17.80
2022-10-29T22:30:17.473Z,17.70
2022-10-29T22:33:05.405Z,17.70
2022-10-29T22:35:52.023Z,17.60
2022-10-29T22:38:39.210Z,17.70
2022-10-29T22:41:26.969Z,17.70
2022-10-29T22:44:13.412Z,17.70
2022-10-29T22:46:59.915Z,17.80
2022-10-29T22:49:47.766Z,17.80
2022-10-29T22:52:34.496Z,17.80
2022-10-29T22:55:20.883Z,17.70
2022-10-29T22:58:07.286Z,17.80
2022-10-29T23:01:03.174Z,17.80
2022-10-29T23:03:50.599Z,17.90
2022-10-29T23:06:38.580Z,17.90
2022-10-29T23:09:25.409Z,17.90
2022-10-29T23:12:12.227Z,17.90
2022-10-29T23:14:58.726Z,17.90
2022-10-29T23:17:45.169Z,17.90
2022-10-29T23:20:31.572Z,17.90
2022-10-29T23:23:19.321Z,17.90
2022-10-29T23:26:06.296Z,17.90
2022-10-29T23:28:53.147Z,17.80
2022-10-29T23:31:39.794Z,17.90
2022-10-29T23:34:26.138Z,17.90
2022-10-29T23:37:12.540Z,17.90
2022-10-29T23:40:00.356Z,17.80
2022-10-29T23:42:47.094Z,17.80
2022-10-29T23:45:33.564Z,17.80
2022-10-29T23:48:20.294Z,17.90
2022-10-29T23:51:07.190Z,17.90
2022-10-29T23:53:56.597Z,17.80
2022-10-29T23:56:46.035Z,17.70
2022-10-29T23:59:32.899Z,17.70
